sensor_id;sensor_type;location;lat;lon;timestamp;pressure;altitude;pressure_sealevel;temperature;humidity
39295;BME280;52361;52.100;5.248;2023-02-28T00:01:10;103108.99999999999;;;2.5;100.0
39295;BME280;52361;52.100;5.248;2023-02-28T00:02:47;103105.0;;;2.41;100.0
39295;BME280;52361;52.100;5.248;2023-02-28T00:04:24;103105.0;;;2.42;100.0
39295;BME280;52361;52.100;5.248;2023-02-28T00:06:01;103099.0;;;2.39;100.0
39295;BME280;52361;52.100;5.248;2023-02-28T00:09:14;103101.0;;;2.32;100.0
39295;BME280;52361;52.100;5.248;2023-02-28T00:10:50;103097.0;;;2.34;100.0
39295;BME280;52361;52.100;5.248;2023-02-28T00:12:27;103106.0;;;2.46;100.0
39295;BME280;52361;52.100;5.248;2023-02-28T00:15:39;103107.0;;;2.67;100.0
39295;BME280;52361;52.100;5.248;2023-02-28T00:17:15;103106.0;;;2.74;100.0
39295;BME280;52361;52.100;5.248;2023-02-28T00:18:51;103113.00000000001;;;2.8;100.0
39295;BME280;52361;52.100;5.248;2023-02-28T00:23:39;103113.00000000001;;;2.9;100.0
39295;BME280;52361;52.100;5.248;2023-02-28T00:25:17;103118.0;;;2.97;100.0
39295;BME280;52361;52.100;5.248;2023-02-28T00:26:55;103115.00000000001;;;3.02;100.0
39295;BME280;52361;52.100;5.248;2023-02-28T00:30:11;103119.0;;;3.09;100.0
39295;BME280;52361;52.100;5.248;2023-02-28T00:31:51;103116.00000000001;;;3.1;100.0
39295;BME280;52361;52.100;5.248;2023-02-28T00:33:27;103117.0;;;3.11;100.0
39295;BME280;52361;52.100;5.248;2023-02-28T00:36:43;103119.0;;;3.19;100.0
39295;BME280;52361;52.100;5.248;2023-02-28T00:38:20;103111.99999999999;;;3.24;100.0
39295;BME280;52361;52.100;5.248;2023-02-28T00:39:56;103117.0;;;3.37;100.0
39295;BME280;52361;52.100;5.248;2023-02-28T00:41:32;103108.0;;;3.43;100.0
39295;BME280;52361;52.100;5.248;2023-02-28T00:44:44;103115.00000000001;;;3.46;100.0
39295;BME280;52361;52.100;5.248;2023-02-28T00:46:20;103108.0;;;3.52;100.0
39295;BME280;52361;52.100;5.248;2023-02-28T00:47:57;103109.99999999999;;;3.5;100.0
39295;BME280;52361;52.100;5.248;2023-02-28T00:51:09;103107.0;;;3.5;100.0
39295;BME280;52361;52.100;5.248;2023-02-28T00:52:45;103104.0;;;3.54;100.0
39295;BME280;52361;52.100;5.248;2023-02-28T00:54:23;103103.0;;;3.56;100.0
39295;BME280;52361;52.100;5.248;2023-02-28T00:57:36;103099.0;;;3.7;100.0
39295;BME280;52361;52.100;5.248;2023-02-28T00:59:12;103099.0;;;3.75;100.0
39295;BME280;52361;52.100;5.248;2023-02-28T01:00:49;103101.0;;;3.83;100.0
39295;BME280;52361;52.100;5.248;2023-02-28T01:04:02;103101.0;;;3.81;100.0
39295;BME280;52361;52.100;5.248;2023-02-28T01:05:38;103103.0;;;3.73;100.0
39295;BME280;52361;52.100;5.248;2023-02-28T01:07:14;103100.0;;;3.81;100.0
39295;BME280;52361;52.100;5.248;2023-02-28T01:08:50;103105.0;;;3.91;100.0
39295;BME280;52361;52.100;5.248;2023-02-28T01:12:04;103111.99999999999;;;4.05;100.0
39295;BME280;52361;52.100;5.248;2023-02-28T01:13:40;103107.0;;;4.05;100.0
39295;BME280;52361;52.100;5.248;2023-02-28T01:15:17;103113.00000000001;;;4.09;100.0
39295;BME280;52361;52.100;5.248;2023-02-28T01:18:29;103106.0;;;4.03;100.0
39295;BME280;52361;52.100;5.248;2023-02-28T01:20:06;103104.0;;;4.08;100.0
39295;BME280;52361;52.100;5.248;2023-02-28T01:21:42;103105.0;;;4.12;100.0
39295;BME280;52361;52.100;5.248;2023-02-28T01:24:56;103102.0;;;4.17;100.0
39295;BME280;52361;52.100;5.248;2023-02-28T01:26:32;103104.0;;;4.12;100.0
39295;BME280;52361;52.100;5.248;2023-02-28T01:29:44;103106.0;;;4.2;100.0
39295;BME280;52361;52.100;5.248;2023-02-28T01:32:59;103105.0;;;4.24;100.0
39295;BME280;52361;52.100;5.248;2023-02-28T01:34:36;103106.0;;;4.32;100.0
39295;BME280;52361;52.100;5.248;2023-02-28T01:36:13;103098.0;;;4.3;100.0
39295;BME280;52361;52.100;5.248;2023-02-28T01:39:27;103098.0;;;4.16;100.0
39295;BME280;52361;52.100;5.248;2023-02-28T01:41:04;103095.0;;;4.18;100.0
39295;BME280;52361;52.100;5.248;2023-02-28T01:42:40;103096.0;;;4.25;100.0
39295;BME280;52361;52.100;5.248;2023-02-28T01:47:02;103096.0;;;4.24;100.0
39295;BME280;52361;52.100;5.248;2023-02-28T01:48:41;103093.0;;;4.25;100.0
39295;BME280;52361;52.100;5.248;2023-02-28T01:51:58;103092.0;;;4.25;100.0
39295;BME280;52361;52.100;5.248;2023-02-28T01:53:37;103092.0;;;4.32;100.0
39295;BME280;52361;52.100;5.248;2023-02-28T01:55:19;103090.00000000001;;;4.45;100.0
39295;BME280;52361;52.100;5.248;2023-02-28T01:57:00;103086.99999999999;;;4.46;100.0
39295;BME280;52361;52.100;5.248;2023-02-28T02:00:20;103079.0;;;4.41;100.0
39295;BME280;52361;52.100;5.248;2023-02-28T02:01:59;103088.00000000001;;;4.38;100.0
39295;BME280;52361;52.100;5.248;2023-02-28T02:03:36;103079.0;;;4.41;100.0
39295;BME280;52361;52.100;5.248;2023-02-28T02:05:16;103081.0;;;4.49;100.0
39295;BME280;52361;52.100;5.248;2023-02-28T02:08:30;103073.0;;;4.57;100.0
39295;BME280;52361;52.100;5.248;2023-02-28T02:10:12;103070.0;;;4.51;100.0
39295;BME280;52361;52.100;5.248;2023-02-28T02:11:51;103065.00000000001;;;4.51;100.0
39295;BME280;52361;52.100;5.248;2023-02-28T02:15:32;103066.00000000001;;;4.53;100.0
39295;BME280;52361;52.100;5.248;2023-02-28T02:17:19;103058.99999999999;;;4.47;100.0
39295;BME280;52361;52.100;5.248;2023-02-28T02:19:11;103056.0;;;4.55;100.0
39295;BME280;52361;52.100;5.248;2023-02-28T02:22:00;103058.99999999999;;;4.61;100.0
39295;BME280;52361;52.100;5.248;2023-02-28T02:24:55;103058.99999999999;;;4.57;100.0
39295;BME280;52361;52.100;5.248;2023-02-28T02:27:17;103058.99999999999;;;4.63;100.0
39295;BME280;52361;52.100;5.248;2023-02-28T02:30:07;103059.99999999999;;;4.55;100.0
39295;BME280;52361;52.100;5.248;2023-02-28T02:32:19;103064.00000000001;;;4.59;100.0
39295;BME280;52361;52.100;5.248;2023-02-28T02:35:28;103069.0;;;4.68;100.0
39295;BME280;52361;52.100;5.248;2023-02-28T02:37:14;103070.0;;;4.62;100.0
39295;BME280;52361;52.100;5.248;2023-02-28T02:39:00;103071.0;;;4.74;100.0
39295;BME280;52361;52.100;5.248;2023-02-28T02:42:36;103074.0;;;4.71;100.0
39295;BME280;52361;52.100;5.248;2023-02-28T02:44:19;103073.0;;;4.63;100.0
39295;BME280;52361;52.100;5.248;2023-02-28T02:46:01;103075.0;;;4.75;100.0
39295;BME280;52361;52.100;5.248;2023-02-28T02:47:41;103064.00000000001;;;4.78;100.0
39295;BME280;52361;52.100;5.248;2023-02-28T02:49:21;103073.0;;;4.8;100.0
39295;BME280;52361;52.100;5.248;2023-02-28T02:52:44;103072.0;;;4.87;100.0
39295;BME280;52361;52.100;5.248;2023-02-28T02:54:35;103069.0;;;4.91;100.0
39295;BME280;52361;52.100;5.248;2023-02-28T02:56:13;103066.00000000001;;;4.86;100.0
39295;BME280;52361;52.100;5.248;2023-02-28T02:57:53;103067.0;;;4.91;100.0
39295;BME280;52361;52.100;5.248;2023-02-28T03:01:16;103068.0;;;4.82;100.0
39295;BME280;52361;52.100;5.248;2023-02-28T03:02:56;103071.0;;;4.82;100.0
39295;BME280;52361;52.100;5.248;2023-02-28T03:04:36;103068.0;;;4.79;100.0
39295;BME280;52361;52.100;5.248;2023-02-28T03:09:33;103071.0;;;4.72;100.0
39295;BME280;52361;52.100;5.248;2023-02-28T03:11:13;103075.0;;;4.78;100.0
39295;BME280;52361;52.100;5.248;2023-02-28T03:12:59;103072.0;;;4.8;100.0
39295;BME280;52361;52.100;5.248;2023-02-28T03:14:49;103069.0;;;4.82;100.0
39295;BME280;52361;52.100;5.248;2023-02-28T03:16:35;103075.0;;;4.78;100.0
39295;BME280;52361;52.100;5.248;2023-02-28T03:20:07;103066.00000000001;;;4.78;100.0
39295;BME280;52361;52.100;5.248;2023-02-28T03:21:59;103068.0;;;4.75;100.0
39295;BME280;52361;52.100;5.248;2023-02-28T03:23:45;103067.0;;;4.84;100.0
39295;BME280;52361;52.100;5.248;2023-02-28T03:25:32;103073.0;;;4.91;100.0
39295;BME280;52361;52.100;5.248;2023-02-28T03:27:16;103069.0;;;4.87;100.0
39295;BME280;52361;52.100;5.248;2023-02-28T03:29:02;103068.0;;;4.93;100.0
39295;BME280;52361;52.100;5.248;2023-02-28T03:32:27;103067.0;;;4.88;100.0
39295;BME280;52361;52.100;5.248;2023-02-28T03:34:13;103071.0;;;4.84;100.0
39295;BME280;52361;52.100;5.248;2023-02-28T03:35:55;103072.0;;;4.8;100.0
39295;BME280;52361;52.100;5.248;2023-02-28T03:37:37;103069.0;;;4.87;100.0
39295;BME280;52361;52.100;5.248;2023-02-28T03:41:01;103069.0;;;4.99;100.0
39295;BME280;52361;52.100;5.248;2023-02-28T03:42:44;103068.0;;;4.91;100.0
39295;BME280;52361;52.100;5.248;2023-02-28T03:44:25;103067.0;;;4.97;100.0
39295;BME280;52361;52.100;5.248;2023-02-28T03:46:08;103066.00000000001;;;4.93;100.0
39295;BME280;52361;52.100;5.248;2023-02-28T03:47:49;103064.00000000001;;;4.84;100.0
39295;BME280;52361;52.100;5.248;2023-02-28T03:51:14;103075.0;;;4.87;100.0
39295;BME280;52361;52.100;5.248;2023-02-28T03:52:56;103072.0;;;4.84;100.0
39295;BME280;52361;52.100;5.248;2023-02-28T03:54:41;103074.0;;;4.82;100.0
39295;BME280;52361;52.100;5.248;2023-02-28T03:56:24;103074.0;;;4.91;100.0
39295;BME280;52361;52.100;5.248;2023-02-28T03:59:55;103077.0;;;4.93;100.0
39295;BME280;52361;52.100;5.248;2023-02-28T04:01:38;103080.0;;;4.82;100.0
39295;BME280;52361;52.100;5.248;2023-02-28T04:03:17;103081.0;;;4.89;100.0
39295;BME280;52361;52.100;5.248;2023-02-28T04:04:52;103083.0;;;4.91;100.0
39295;BME280;52361;52.100;5.248;2023-02-28T04:08:08;103081.0;;;4.91;100.0
39295;BME280;52361;52.100;5.248;2023-02-28T04:09:44;103081.0;;;4.82;100.0
39295;BME280;52361;52.100;5.248;2023-02-28T04:11:24;103086.99999999999;;;4.78;100.0
39295;BME280;52361;52.100;5.248;2023-02-28T04:13:02;103086.99999999999;;;4.8;100.0
39295;BME280;52361;52.100;5.248;2023-02-28T04:16:15;103084.99999999999;;;4.78;100.0
39295;BME280;52361;52.100;5.248;2023-02-28T04:17:51;103089.00000000001;;;4.87;100.0
39295;BME280;52361;52.100;5.248;2023-02-28T04:19:28;103084.99999999999;;;4.87;100.0
39295;BME280;52361;52.100;5.248;2023-02-28T04:22:41;103090.00000000001;;;4.93;100.0
39295;BME280;52361;52.100;5.248;2023-02-28T04:24:19;103091.00000000001;;;4.93;100.0
39295;BME280;52361;52.100;5.248;2023-02-28T04:25:57;103083.0;;;4.87;100.0
39295;BME280;52361;52.100;5.248;2023-02-28T04:27:33;103083.99999999999;;;4.84;100.0
39295;BME280;52361;52.100;5.248;2023-02-28T04:30:54;103092.0;;;4.74;99.86
39295;BME280;52361;52.100;5.248;2023-02-28T04:32:31;103091.00000000001;;;4.84;98.58
39295;BME280;52361;52.100;5.248;2023-02-28T04:34:07;103092.0;;;4.93;98.32
39295;BME280;52361;52.100;5.248;2023-02-28T04:37:20;103094.0;;;4.78;97.16
39295;BME280;52361;52.100;5.248;2023-02-28T04:38:56;103093.0;;;4.58;92.32
39295;BME280;52361;52.100;5.248;2023-02-28T04:40:32;103096.0;;;4.76;88.79
39295;BME280;52361;52.100;5.248;2023-02-28T04:42:09;103100.0;;;4.8;90.19
39295;BME280;52361;52.100;5.248;2023-02-28T04:45:22;103102.0;;;4.87;90.36
39295;BME280;52361;52.100;5.248;2023-02-28T04:46:58;103103.0;;;4.87;89.7
39295;BME280;52361;52.100;5.248;2023-02-28T04:48:36;103101.0;;;4.87;90.44
39295;BME280;52361;52.100;5.248;2023-02-28T04:51:50;103107.0;;;4.75;88.83
39295;BME280;52361;52.100;5.248;2023-02-28T04:53:27;103102.0;;;4.78;88.66
39295;BME280;52361;52.100;5.248;2023-02-28T04:55:05;103103.0;;;4.71;88.25
39295;BME280;52361;52.100;5.248;2023-02-28T04:58:18;103105.0;;;4.57;88.2
39295;BME280;52361;52.100;5.248;2023-02-28T04:59:54;103105.0;;;4.68;88.47
39295;BME280;52361;52.100;5.248;2023-02-28T05:01:32;103104.0;;;4.53;86.11
39295;BME280;52361;52.100;5.248;2023-02-28T05:03:09;103106.0;;;4.43;85.45
39295;BME280;52361;52.100;5.248;2023-02-28T05:06:22;103105.0;;;4.45;85.38
39295;BME280;52361;52.100;5.248;2023-02-28T05:07:59;103104.0;;;4.74;84.47
39295;BME280;52361;52.100;5.248;2023-02-28T05:09:35;103099.0;;;4.87;84.09
39295;BME280;52361;52.100;5.248;2023-02-28T05:12:52;103095.0;;;4.68;85.56
39295;BME280;52361;52.100;5.248;2023-02-28T05:14:29;103094.0;;;4.57;85.76
39295;BME280;52361;52.100;5.248;2023-02-28T05:16:05;103093.0;;;4.49;84.98
39295;BME280;52361;52.100;5.248;2023-02-28T05:17:42;103099.0;;;4.42;85.0
39295;BME280;52361;52.100;5.248;2023-02-28T05:20:55;103098.0;;;4.43;85.57
39295;BME280;52361;52.100;5.248;2023-02-28T05:22:31;103100.0;;;4.29;85.19
39295;BME280;52361;52.100;5.248;2023-02-28T05:24:10;103102.0;;;4.3;85.83
39295;BME280;52361;52.100;5.248;2023-02-28T05:27:24;103108.99999999999;;;4.33;85.66
39295;BME280;52361;52.100;5.248;2023-02-28T05:29:00;103111.99999999999;;;4.28;86.59
39295;BME280;52361;52.100;5.248;2023-02-28T05:30:36;103115.00000000001;;;3.86;89.69
39295;BME280;52361;52.100;5.248;2023-02-28T05:33:49;103117.0;;;3.71;92.17
39295;BME280;52361;52.100;5.248;2023-02-28T05:35:26;103118.0;;;3.94;93.23
39295;BME280;52361;52.100;5.248;2023-02-28T05:37:02;103115.00000000001;;;3.76;95.69
39295;BME280;52361;52.100;5.248;2023-02-28T05:38:39;103117.0;;;3.77;96.17
39295;BME280;52361;52.100;5.248;2023-02-28T05:41:52;103113.00000000001;;;3.72;97.6
39295;BME280;52361;52.100;5.248;2023-02-28T05:43:28;103119.0;;;3.75;98.63
39295;BME280;52361;52.100;5.248;2023-02-28T05:45:05;103111.99999999999;;;3.72;100.0
39295;BME280;52361;52.100;5.248;2023-02-28T05:48:17;103111.99999999999;;;3.68;100.0
39295;BME280;52361;52.100;5.248;2023-02-28T05:49:53;103117.0;;;3.47;100.0
39295;BME280;52361;52.100;5.248;2023-02-28T05:51:30;103113.00000000001;;;3.5;100.0
39295;BME280;52361;52.100;5.248;2023-02-28T05:54:42;103117.0;;;3.52;100.0
39295;BME280;52361;52.100;5.248;2023-02-28T05:56:18;103109.99999999999;;;3.57;100.0
39295;BME280;52361;52.100;5.248;2023-02-28T05:57:54;103114.00000000001;;;3.41;100.0
39295;BME280;52361;52.100;5.248;2023-02-28T05:59:30;103118.0;;;3.43;100.0
39295;BME280;52361;52.100;5.248;2023-02-28T06:03:09;103111.99999999999;;;3.52;100.0
39295;BME280;52361;52.100;5.248;2023-02-28T06:04:45;103116.00000000001;;;3.41;100.0
39295;BME280;52361;52.100;5.248;2023-02-28T06:06:22;103113.00000000001;;;3.21;100.0
39295;BME280;52361;52.100;5.248;2023-02-28T06:07:58;103111.99999999999;;;3.21;100.0
39295;BME280;52361;52.100;5.248;2023-02-28T06:11:12;103121.0;;;3.38;100.0
39295;BME280;52361;52.100;5.248;2023-02-28T06:12:48;103118.0;;;3.34;100.0
39295;BME280;52361;52.100;5.248;2023-02-28T06:14:25;103121.0;;;3.51;100.0
39295;BME280;52361;52.100;5.248;2023-02-28T06:17:37;103120.0;;;3.38;100.0
39295;BME280;52361;52.100;5.248;2023-02-28T06:19:13;103115.00000000001;;;3.25;100.0
39295;BME280;52361;52.100;5.248;2023-02-28T06:20:52;103117.0;;;3.12;100.0
39295;BME280;52361;52.100;5.248;2023-02-28T06:24:05;103116.00000000001;;;3.02;100.0
39295;BME280;52361;52.100;5.248;2023-02-28T06:25:44;103111.99999999999;;;2.99;100.0
39295;BME280;52361;52.100;5.248;2023-02-28T06:27:21;103114.00000000001;;;3.08;100.0
39295;BME280;52361;52.100;5.248;2023-02-28T06:28:57;103111.99999999999;;;2.99;100.0
39295;BME280;52361;52.100;5.248;2023-02-28T06:32:09;103114.00000000001;;;3.06;100.0
39295;BME280;52361;52.100;5.248;2023-02-28T06:33:45;103105.0;;;3.04;100.0
39295;BME280;52361;52.100;5.248;2023-02-28T06:35:22;103106.0;;;3.02;100.0
39295;BME280;52361;52.100;5.248;2023-02-28T06:38:36;103115.00000000001;;;2.97;100.0
39295;BME280;52361;52.100;5.248;2023-02-28T06:40:14;103114.00000000001;;;2.95;100.0
39295;BME280;52361;52.100;5.248;2023-02-28T06:41:51;103118.0;;;3.01;100.0
39295;BME280;52361;52.100;5.248;2023-02-28T06:43:28;103114.00000000001;;;3.0;100.0
39295;BME280;52361;52.100;5.248;2023-02-28T06:46:44;103116.00000000001;;;2.96;100.0
39295;BME280;52361;52.100;5.248;2023-02-28T06:48:20;103116.00000000001;;;2.97;100.0
39295;BME280;52361;52.100;5.248;2023-02-28T06:49:56;103116.00000000001;;;2.98;100.0
39295;BME280;52361;52.100;5.248;2023-02-28T06:53:09;103119.0;;;3.05;100.0
39295;BME280;52361;52.100;5.248;2023-02-28T06:54:45;103120.0;;;3.15;100.0
39295;BME280;52361;52.100;5.248;2023-02-28T06:56:21;103118.0;;;3.16;100.0
39295;BME280;52361;52.100;5.248;2023-02-28T06:59:35;103117.0;;;3.15;100.0
39295;BME280;52361;52.100;5.248;2023-02-28T07:01:11;103116.00000000001;;;3.19;100.0
39295;BME280;52361;52.100;5.248;2023-02-28T07:02:49;103116.00000000001;;;3.36;100.0
39295;BME280;52361;52.100;5.248;2023-02-28T07:04:25;103108.0;;;3.26;100.0
39295;BME280;52361;52.100;5.248;2023-02-28T07:07:38;103111.99999999999;;;3.32;100.0
39295;BME280;52361;52.100;5.248;2023-02-28T07:09:15;103115.00000000001;;;3.4;100.0
39295;BME280;52361;52.100;5.248;2023-02-28T07:10:52;103111.99999999999;;;3.31;100.0
39295;BME280;52361;52.100;5.248;2023-02-28T07:14:05;103115.00000000001;;;3.23;100.0
39295;BME280;52361;52.100;5.248;2023-02-28T07:15:41;103119.0;;;3.31;100.0
39295;BME280;52361;52.100;5.248;2023-02-28T07:17:17;103124.0;;;3.35;100.0
39295;BME280;52361;52.100;5.248;2023-02-28T07:20:29;103124.0;;;3.45;100.0
39295;BME280;52361;52.100;5.248;2023-02-28T07:22:07;103129.0;;;3.44;100.0
39295;BME280;52361;52.100;5.248;2023-02-28T07:23:43;103126.0;;;3.5;100.0
39295;BME280;52361;52.100;5.248;2023-02-28T07:25:20;103125.0;;;3.5;100.0
39295;BME280;52361;52.100;5.248;2023-02-28T07:28:33;103117.0;;;3.43;100.0
39295;BME280;52361;52.100;5.248;2023-02-28T07:30:10;103120.0;;;3.58;100.0
39295;BME280;52361;52.100;5.248;2023-02-28T07:31:46;103118.0;;;3.65;100.0
39295;BME280;52361;52.100;5.248;2023-02-28T07:34:59;103126.0;;;3.67;100.0
39295;BME280;52361;52.100;5.248;2023-02-28T07:36:35;103125.0;;;3.75;100.0
39295;BME280;52361;52.100;5.248;2023-02-28T07:38:11;103121.0;;;3.7;100.0
39295;BME280;52361;52.100;5.248;2023-02-28T07:41:23;103118.0;;;3.66;100.0
39295;BME280;52361;52.100;5.248;2023-02-28T07:42:59;103117.0;;;3.63;100.0
39295;BME280;52361;52.100;5.248;2023-02-28T07:44:36;103121.0;;;3.65;100.0
39295;BME280;52361;52.100;5.248;2023-02-28T07:46:15;103120.0;;;3.67;100.0
39295;BME280;52361;52.100;5.248;2023-02-28T07:49:29;103122.0;;;3.69;100.0
39295;BME280;52361;52.100;5.248;2023-02-28T07:52:41;103131.0;;;3.72;100.0
39295;BME280;52361;52.100;5.248;2023-02-28T07:55:55;103132.0;;;3.76;100.0
39295;BME280;52361;52.100;5.248;2023-02-28T07:57:31;103130.0;;;3.85;100.0
39295;BME280;52361;52.100;5.248;2023-02-28T07:59:07;103128.0;;;3.91;100.0
39295;BME280;52361;52.100;5.248;2023-02-28T08:02:20;103133.0;;;3.96;100.0
39295;BME280;52361;52.100;5.248;2023-02-28T08:03:56;103140.00000000001;;;3.92;100.0
39295;BME280;52361;52.100;5.248;2023-02-28T08:05:32;103146.0;;;3.94;100.0
39295;BME280;52361;52.100;5.248;2023-02-28T08:07:08;103138.00000000001;;;3.91;100.0
39295;BME280;52361;52.100;5.248;2023-02-28T08:11:57;103139.00000000001;;;3.84;100.0
39295;BME280;52361;52.100;5.248;2023-02-28T08:13:33;103144.0;;;3.97;100.0
39295;BME280;52361;52.100;5.248;2023-02-28T08:16:46;103149.0;;;4.01;100.0
39295;BME280;52361;52.100;5.248;2023-02-28T08:18:23;103151.0;;;4.07;100.0
39295;BME280;52361;52.100;5.248;2023-02-28T08:20:00;103152.0;;;4.09;100.0
39295;BME280;52361;52.100;5.248;2023-02-28T08:23:12;103151.0;;;4.04;100.0
39295;BME280;52361;52.100;5.248;2023-02-28T08:24:49;103150.0;;;4.1;100.0
39295;BME280;52361;52.100;5.248;2023-02-28T08:26:25;103164.00000000001;;;4.12;100.0
39295;BME280;52361;52.100;5.248;2023-02-28T08:28:02;103156.0;;;4.12;100.0
39295;BME280;52361;52.100;5.248;2023-02-28T08:31:15;103159.99999999999;;;4.2;100.0
39295;BME280;52361;52.100;5.248;2023-02-28T08:32:53;103164.00000000001;;;4.28;100.0
39295;BME280;52361;52.100;5.248;2023-02-28T08:34:29;103151.0;;;4.24;100.0
39295;BME280;52361;52.100;5.248;2023-02-28T08:37:43;103151.0;;;4.29;100.0
39295;BME280;52361;52.100;5.248;2023-02-28T08:39:19;103150.0;;;4.36;100.0
39295;BME280;52361;52.100;5.248;2023-02-28T08:40:57;103153.0;;;4.47;100.0
39295;BME280;52361;52.100;5.248;2023-02-28T08:44:12;103156.0;;;4.41;100.0
39295;BME280;52361;52.100;5.248;2023-02-28T08:45:51;103158.99999999999;;;4.43;100.0
39295;BME280;52361;52.100;5.248;2023-02-28T08:47:27;103159.99999999999;;;4.49;100.0
39295;BME280;52361;52.100;5.248;2023-02-28T08:49:03;103157.0;;;4.49;100.0
39295;BME280;52361;52.100;5.248;2023-02-28T08:52:17;103157.0;;;4.34;100.0
39295;BME280;52361;52.100;5.248;2023-02-28T08:53:53;103161.99999999999;;;4.62;100.0
39295;BME280;52361;52.100;5.248;2023-02-28T08:55:30;103155.0;;;4.62;100.0
39295;BME280;52361;52.100;5.248;2023-02-28T08:58:43;103157.0;;;4.53;100.0
39295;BME280;52361;52.100;5.248;2023-02-28T09:00:21;103152.0;;;4.66;100.0
39295;BME280;52361;52.100;5.248;2023-02-28T09:01:57;103150.0;;;4.62;100.0
39295;BME280;52361;52.100;5.248;2023-02-28T09:05:10;103143.0;;;4.58;100.0
39295;BME280;52361;52.100;5.248;2023-02-28T09:06:46;103149.0;;;4.62;100.0
39295;BME280;52361;52.100;5.248;2023-02-28T09:08:23;103154.0;;;4.7;100.0
39295;BME280;52361;52.100;5.248;2023-02-28T09:09:59;103157.0;;;4.87;100.0
39295;BME280;52361;52.100;5.248;2023-02-28T09:13:12;103158.99999999999;;;4.63;100.0
39295;BME280;52361;52.100;5.248;2023-02-28T09:14:49;103158.0;;;4.8;96.78
39295;BME280;52361;52.100;5.248;2023-02-28T09:16:25;103165.00000000001;;;4.86;99.81
39295;BME280;52361;52.100;5.248;2023-02-28T09:19:37;103155.0;;;4.95;96.32
39295;BME280;52361;52.100;5.248;2023-02-28T09:21:15;103161.99999999999;;;5.07;93.44
39295;BME280;52361;52.100;5.248;2023-02-28T09:22:52;103156.0;;;5.14;91.32
39295;BME280;52361;52.100;5.248;2023-02-28T09:26:05;103157.0;;;5.12;92.67
39295;BME280;52361;52.100;5.248;2023-02-28T09:27:42;103158.99999999999;;;5.07;92.35
39295;BME280;52361;52.100;5.248;2023-02-28T09:29:18;103158.0;;;5.18;92.89
39295;BME280;52361;52.100;5.248;2023-02-28T09:30:54;103157.0;;;5.41;92.42
39295;BME280;52361;52.100;5.248;2023-02-28T09:34:07;103158.0;;;5.57;91.05
39295;BME280;52361;52.100;5.248;2023-02-28T09:35:43;103157.0;;;5.68;88.42
39295;BME280;52361;52.100;5.248;2023-02-28T09:37:19;103158.0;;;5.76;86.27
39295;BME280;52361;52.100;5.248;2023-02-28T09:40:35;103153.0;;;5.8;84.24
39295;BME280;52361;52.100;5.248;2023-02-28T09:42:19;103154.0;;;5.84;81.47
39295;BME280;52361;52.100;5.248;2023-02-28T09:44:07;103158.0;;;6.02;80.89
39295;BME280;52361;52.100;5.248;2023-02-28T09:45:52;103158.99999999999;;;6.27;80.53
39295;BME280;52361;52.100;5.248;2023-02-28T09:47:33;103164.00000000001;;;6.29;76.33
39295;BME280;52361;52.100;5.248;2023-02-28T09:50:54;103158.99999999999;;;6.83;74.98
39295;BME280;52361;52.100;5.248;2023-02-28T09:52:37;103153.0;;;7.12;71.33
39295;BME280;52361;52.100;5.248;2023-02-28T09:54:15;103156.0;;;7.4;70.24
39295;BME280;52361;52.100;5.248;2023-02-28T09:57:38;103150.0;;;7.5;68.87
39295;BME280;52361;52.100;5.248;2023-02-28T09:59:31;103151.0;;;7.68;66.38
39295;BME280;52361;52.100;5.248;2023-02-28T10:01:21;103154.0;;;7.54;59.12
39295;BME280;52361;52.100;5.248;2023-02-28T10:03:23;103158.0;;;7.8;62.03
39295;BME280;52361;52.100;5.248;2023-02-28T10:05:05;103149.0;;;7.81;57.11
39295;BME280;52361;52.100;5.248;2023-02-28T10:06:46;103156.0;;;7.8;54.59
39295;BME280;52361;52.100;5.248;2023-02-28T10:10:15;103150.0;;;7.81;52.56
39295;BME280;52361;52.100;5.248;2023-02-28T10:12:01;103150.0;;;7.63;49.38
39295;BME280;52361;52.100;5.248;2023-02-28T10:13:49;103149.0;;;7.56;47.44
39295;BME280;52361;52.100;5.248;2023-02-28T10:15:29;103149.0;;;7.13;46.94
39295;BME280;52361;52.100;5.248;2023-02-28T10:17:11;103148.0;;;7.18;47.62
39295;BME280;52361;52.100;5.248;2023-02-28T10:20:37;103142.0;;;7.24;48.4
39295;BME280;52361;52.100;5.248;2023-02-28T10:22:17;103142.0;;;7.41;49.89
39295;BME280;52361;52.100;5.248;2023-02-28T10:24:04;103138.00000000001;;;7.41;49.26
39295;BME280;52361;52.100;5.248;2023-02-28T10:25:57;103134.99999999999;;;7.47;49.73
39295;BME280;52361;52.100;5.248;2023-02-28T10:27:34;103129.0;;;7.43;48.5
39295;BME280;52361;52.100;5.248;2023-02-28T10:30:49;103132.0;;;7.69;48.26
39295;BME280;52361;52.100;5.248;2023-02-28T10:32:27;103128.0;;;7.46;47.33
39295;BME280;52361;52.100;5.248;2023-02-28T10:34:07;103126.0;;;7.64;49.16
39295;BME280;52361;52.100;5.248;2023-02-28T10:35:48;103128.0;;;7.89;46.49
39295;BME280;52361;52.100;5.248;2023-02-28T10:39:34;103122.0;;;8.44;47.66
39295;BME280;52361;52.100;5.248;2023-02-28T10:41:13;103124.0;;;8.72;45.77
39295;BME280;52361;52.100;5.248;2023-02-28T10:42:55;103125.0;;;8.91;45.64
39295;BME280;52361;52.100;5.248;2023-02-28T10:44:34;103118.0;;;8.75;42.82
39295;BME280;52361;52.100;5.248;2023-02-28T10:46:13;103130.0;;;8.8;43.63
39295;BME280;52361;52.100;5.248;2023-02-28T10:49:30;103126.0;;;9.13;43.7
39295;BME280;52361;52.100;5.248;2023-02-28T10:51:08;103121.0;;;9.18;42.79
39295;BME280;52361;52.100;5.248;2023-02-28T10:52:46;103121.0;;;9.0;42.35
39295;BME280;52361;52.100;5.248;2023-02-28T10:56:05;103113.00000000001;;;9.44;42.15
39295;BME280;52361;52.100;5.248;2023-02-28T10:57:49;103108.99999999999;;;9.39;41.04
39295;BME280;52361;52.100;5.248;2023-02-28T10:59:29;103111.99999999999;;;9.51;40.62
39295;BME280;52361;52.100;5.248;2023-02-28T11:01:12;103102.0;;;9.72;42.39
39295;BME280;52361;52.100;5.248;2023-02-28T11:02:50;103107.0;;;9.6;41.45
39295;BME280;52361;52.100;5.248;2023-02-28T11:06:16;103104.0;;;9.22;40.26